Time;durP1;ratioP1;P1;durP2;ratioP2;P2;SDS_P1;SDS_P2;PMS_P1;PMS_P2;Temp;Humidity;BMP_temperature;BMP_pressure;BME280_temperature;BME280_humidity;BME280_pressure;Samples;Min_cycle;Max_cycle;Signal;HPM_P1;HPM_P2
2022/05/07 00:01:03;;;;;;;;;;;;;;;12.40;100.00;100158.16;5091288;28;19970;-76
2022/05/07 00:03:28;;;;;;;;;;;;;;;12.37;100.00;100155.78;5091438;28;19920;-77
2022/05/07 00:05:54;;;;;;;;;;;;;;;12.36;100.00;100156.78;5091600;28;19919;-77
2022/05/07 00:08:19;;;;;;;;;;;;;;;12.33;100.00;100149.13;5090844;28;20390;-76
2022/05/07 00:10:45;;;;;;;;;;;;;;;12.33;100.00;100154.41;5090793;28;19916;-77
2022/05/07 00:13:11;;;;;;;;;;;;;;;12.32;100.00;100150.91;5090573;28;19916;-77
2022/05/07 00:15:36;;;;;;;;;;;;;;;12.34;100.00;100150.78;5090592;28;19923;-77
2022/05/07 00:18:03;;;;;;;;;;;;;;;12.33;100.00;100149.13;5090737;28;20217;-76
2022/05/07 00:20:28;;;;;;;;;;;;;;;12.32;100.00;100152.72;5089142;28;20371;-77
2022/05/07 00:22:54;;;;;;;;;;;;;;;12.27;100.00;100144.38;5089607;28;19916;-76
2022/05/07 00:25:19;;;;;;;;;;;;;;;12.23;100.00;100151.78;5089034;28;19915;-76
2022/05/07 00:27:44;;;;;;;;;;;;;;;12.22;100.00;100149.25;5090391;28;19919;-76
2022/05/07 00:30:10;;;;;;;;;;;;;;;12.19;100.00;100146.91;5090295;28;19923;-77
2022/05/07 00:32:35;;;;;;;;;;;;;;;12.17;100.00;100143.53;5090650;28;19961;-77
2022/05/07 00:35:01;;;;;;;;;;;;;;;12.14;100.00;100138.50;5090739;28;19922;-78
2022/05/07 00:37:26;;;;;;;;;;;;;;;12.13;100.00;100142.16;5090452;28;20309;-76
2022/05/07 00:39:52;;;;;;;;;;;;;;;12.11;100.00;100144.09;5090662;28;19915;-76
2022/05/07 00:42:18;;;;;;;;;;;;;;;12.09;100.00;100136.28;5089878;28;19981;-77
2022/05/07 00:44:43;;;;;;;;;;;;;;;12.07;100.00;100130.31;5090355;28;19928;-76
2022/05/07 00:47:15;;;;;;;;;;;;;;;12.10;100.00;100129.19;5088551;28;19946;-77
2022/05/07 00:49:43;;;;;;;;;;;;;;;12.10;100.00;100126.56;5090142;28;20382;-77
2022/05/07 00:52:08;;;;;;;;;;;;;;;12.11;100.00;100117.66;5088611;28;19947;-76
2022/05/07 00:54:34;;;;;;;;;;;;;;;12.13;100.00;100121.00;5114446;28;19916;-77
2022/05/07 00:56:59;;;;;;;;;;;;;;;12.13;100.00;100115.72;5088878;28;19927;-77
2022/05/07 00:59:25;;;;;;;;;;;;;;;12.15;100.00;100116.38;5086113;28;19942;-77
2022/05/07 01:01:50;;;;;;;;;;;;;;;12.13;100.00;100118.34;5086537;28;19920;-78
2022/05/07 01:04:15;;;;;;;;;;;;;;;12.10;100.00;100110.69;5086972;28;20375;-77
2022/05/07 01:06:41;;;;;;;;;;;;;;;12.08;100.00;100117.91;5088947;28;20375;-76
2022/05/07 01:09:10;;;;;;;;;;;;;;;12.07;100.00;100105.69;5093374;28;19916;-77
2022/05/07 01:11:37;;;;;;;;;;;;;;;12.07;100.00;100110.97;5092792;28;19963;-77
2022/05/07 01:14:02;;;;;;;;;;;;;;;12.07;100.00;100110.97;5093449;28;20375;-77
2022/05/07 01:16:30;;;;;;;;;;;;;;;12.08;100.00;100110.81;5092560;28;19950;-77
2022/05/07 01:18:55;;;;;;;;;;;;;;;12.08;100.00;100107.31;5092716;28;19916;-77
2022/05/07 01:21:21;;;;;;;;;;;;;;;12.09;100.00;100106.34;5092177;28;19925;-77
2022/05/07 01:23:49;;;;;;;;;;;;;;;12.10;100.00;100102.75;5092853;28;20003;-76
2022/05/07 01:26:17;;;;;;;;;;;;;;;12.10;100.00;100100.09;5093761;28;19924;-77
2022/05/07 01:28:44;;;;;;;;;;;;;;;12.10;100.00;100094.81;5091801;28;20372;-77
2022/05/07 01:31:10;;;;;;;;;;;;;;;12.09;100.00;100095.78;5091791;28;20360;-77
2022/05/07 01:33:36;;;;;;;;;;;;;;;12.08;100.00;100091.44;5075780;28;19999;-78
2022/05/07 01:36:11;;;;;;;;;;;;;;;12.07;100.00;100090.66;5092124;28;20302;-77
2022/05/07 01:38:38;;;;;;;;;;;;;;;12.08;100.00;100094.09;5092270;28;19941;-77
2022/05/07 01:41:03;;;;;;;;;;;;;;;12.10;100.00;100084.22;5093290;28;19923;-78
2022/05/07 01:43:32;;;;;;;;;;;;;;;12.13;100.00;100090.09;5117305;27;20814;-77
2022/05/07 01:46:01;;;;;;;;;;;;;;;12.15;100.00;100092.56;5091478;28;20320;-77
2022/05/07 01:48:27;;;;;;;;;;;;;;;12.16;100.00;100087.16;5116983;27;19922;-77
2022/05/07 01:50:54;;;;;;;;;;;;;;;12.20;100.00;100087.69;5091890;28;19916;-77
2022/05/07 01:53:25;;;;;;;;;;;;;;;12.18;100.00;100079.91;5088416;28;19923;-77
2022/05/07 01:55:53;;;;;;;;;;;;;;;12.18;100.00;100087.00;5092063;28;19920;-77
2022/05/07 01:58:22;;;;;;;;;;;;;;;12.21;100.00;100084.06;5087653;28;19916;-76
2022/05/07 02:00:51;;;;;;;;;;;;;;;12.23;100.00;100082.13;5087426;28;20295;-77
2022/05/07 02:03:16;;;;;;;;;;;;;;;12.24;100.00;100084.66;5091214;28;19916;-76
2022/05/07 02:05:42;;;;;;;;;;;;;;;12.22;100.00;100089.25;5091575;28;19916;-76
2022/05/07 02:08:09;;;;;;;;;;;;;;;12.25;100.00;100081.00;5091581;28;19915;-75
2022/05/07 02:10:34;;;;;;;;;;;;;;;12.25;100.00;100082.84;5116888;27;19915;-77
2022/05/07 02:13:01;;;;;;;;;;;;;;;12.24;100.00;100089.09;5091567;28;19951;-77
2022/05/07 02:15:29;;;;;;;;;;;;;;;12.24;100.00;100089.94;5090636;28;19915;-76
2022/05/07 02:17:56;;;;;;;;;;;;;;;12.25;100.00;100088.13;5091119;28;19916;-77
2022/05/07 02:20:21;;;;;;;;;;;;;;;12.23;100.00;100087.44;5090801;28;19942;-77
2022/05/07 02:22:47;;;;;;;;;;;;;;;12.19;100.00;100089.50;5091244;28;19915;-77
2022/05/07 02:25:12;;;;;;;;;;;;;;;12.20;100.00;100090.34;5091236;28;20372;-76
2022/05/07 02:27:38;;;;;;;;;;;;;;;12.18;100.00;100081.72;5092528;28;19922;-77
2022/05/07 02:30:05;;;;;;;;;;;;;;;12.14;100.00;100086.44;5090478;28;19916;-75
2022/05/07 02:32:30;;;;;;;;;;;;;;;12.14;100.00;100085.59;5091832;28;19924;-77
2022/05/07 02:34:56;;;;;;;;;;;;;;;12.14;100.00;100080.31;5090871;28;19912;-77
2022/05/07 02:37:36;;;;;;;;;;;;;;;12.14;100.00;100080.31;5092522;28;19959;-76
2022/05/07 02:40:01;;;;;;;;;;;;;;;12.15;100.00;100074.06;5092187;28;19971;-76
2022/05/07 02:42:39;;;;;;;;;;;;;;;12.16;100.00;100073.09;5090527;28;20236;-77
2022/05/07 02:45:14;;;;;;;;;;;;;;;12.15;100.00;100071.41;5090221;28;20437;-79
2022/05/07 02:47:41;;;;;;;;;;;;;;;12.12;100.00;100066.41;5090835;28;19957;-77
2022/05/07 02:50:07;;;;;;;;;;;;;;;12.08;100.00;100067.66;5090376;28;20513;-77
2022/05/07 02:52:33;;;;;;;;;;;;;;;12.07;100.00;100066.84;5090491;28;19965;-77
2022/05/07 02:55:01;;;;;;;;;;;;;;;12.10;100.00;100068.34;5090680;28;19930;-77
2022/05/07 02:57:26;;;;;;;;;;;;;;;12.11;100.00;100065.56;5115870;27;19931;-77
2022/05/07 02:59:52;;;;;;;;;;;;;;;12.14;100.00;100064.44;5090542;28;19916;-77
2022/05/07 03:02:17;;;;;;;;;;;;;;;12.14;100.00;100067.91;5091217;28;19927;-77
2022/05/07 03:04:43;;;;;;;;;;;;;;;12.14;100.00;100064.44;5091948;28;20240;-76
2022/05/07 03:07:08;;;;;;;;;;;;;;;12.12;100.00;100061.13;5091419;28;19962;-77
2022/05/07 03:09:34;;;;;;;;;;;;;;;12.10;100.00;100063.06;5090412;28;19923;-78
2022/05/07 03:11:59;;;;;;;;;;;;;;;12.07;100.00;100066.00;5090382;28;20436;-77
2022/05/07 03:14:26;;;;;;;;;;;;;;;12.07;100.00;100060.72;5073162;28;20360;-77
2022/05/07 03:16:51;;;;;;;;;;;;;;;12.07;100.00;100068.66;5073718;28;19916;-77
2022/05/07 03:19:16;;;;;;;;;;;;;;;12.07;100.00;100063.34;5091057;28;19916;-78
2022/05/07 03:21:43;;;;;;;;;;;;;;;12.07;100.00;100055.41;5090038;28;20443;-77
2022/05/07 03:24:08;;;;;;;;;;;;;;;12.06;100.00;100059.03;5072882;28;19923;-77
2022/05/07 03:26:35;;;;;;;;;;;;;;;12.06;100.00;100059.03;5089942;28;19963;-77
2022/05/07 03:29:00;;;;;;;;;;;;;;;12.06;100.00;100056.38;5089866;28;20034;-78
2022/05/07 03:31:27;;;;;;;;;;;;;;;12.06;100.00;100056.38;5088816;28;20414;-78
2022/05/07 03:33:52;;;;;;;;;;;;;;;12.06;100.00;100056.38;5089672;28;19947;-78
2022/05/07 03:36:22;;;;;;;;;;;;;;;12.03;100.00;100057.50;5089399;28;19966;-77
2022/05/07 03:38:48;;;;;;;;;;;;;;;12.02;100.00;100054.97;5089695;28;19915;-77
2022/05/07 03:41:20;;;;;;;;;;;;;;;12.00;100.00;100056.94;5089208;28;19923;-76
2022/05/07 03:43:46;;;;;;;;;;;;;;;11.99;100.00;100049.97;5089658;28;20002;-77
2022/05/07 03:46:11;;;;;;;;;;;;;;;11.99;100.00;100052.63;5090433;28;20007;-76
2022/05/07 03:48:46;;;;;;;;;;;;;;;11.97;100.00;100051.91;5089423;28;19943;-75
2022/05/07 03:51:12;;;;;;;;;;;;;;;11.95;100.00;100051.25;5072136;28;19916;-76
2022/05/07 03:53:37;;;;;;;;;;;;;;;11.92;100.00;100038.28;5089338;28;19911;-77
2022/05/07 03:56:14;;;;;;;;;;;;;;;11.89;100.00;100042.06;5089243;28;19931;-77
2022/05/07 03:58:40;;;;;;;;;;;;;;;11.87;100.00;100041.34;5090832;28;19965;-76
2022/05/07 04:01:08;;;;;;;;;;;;;;;11.88;100.00;100049.16;5088955;28;19916;-76
2022/05/07 04:03:33;;;;;;;;;;;;;;;11.87;100.00;100052.78;5089477;28;20383;-76
2022/05/07 04:05:59;;;;;;;;;;;;;;;11.88;100.00;100043.88;5090171;28;20037;-76
2022/05/07 04:08:26;;;;;;;;;;;;;;;11.88;100.00;100043.88;5088577;28;19924;-77
2022/05/07 04:10:53;;;;;;;;;;;;;;;11.90;100.00;100057.75;5090959;28;19951;-77
2022/05/07 04:13:22;;;;;;;;;;;;;;;11.89;100.00;100048.19;5088906;28;19916;-77
2022/05/07 04:15:53;;;;;;;;;;;;;;;11.87;100.00;100042.19;5113217;27;20300;-78
2022/05/07 04:18:21;;;;;;;;;;;;;;;11.87;100.00;100047.47;5084906;28;19923;-77
2022/05/07 04:20:51;;;;;;;;;;;;;;;11.89;100.00;100045.53;5089041;28;19969;-76
2022/05/07 04:23:19;;;;;;;;;;;;;;;11.92;100.00;100048.88;5088677;28;19916;-76
2022/05/07 04:25:46;;;;;;;;;;;;;;;11.93;100.00;100050.53;5114634;28;20388;-77
2022/05/07 04:28:14;;;;;;;;;;;;;;;11.94;100.00;100052.22;5088667;28;19916;-76
2022/05/07 04:30:43;;;;;;;;;;;;;;;11.95;100.00;100043.31;5088769;28;19975;-77
2022/05/07 04:33:09;;;;;;;;;;;;;;;11.98;100.00;100048.31;5088927;28;19939;-77
2022/05/07 04:35:35;;;;;;;;;;;;;;;11.97;100.00;100054.56;5114535;28;20018;-76
2022/05/07 04:38:03;;;;;;;;;;;;;;;11.98;100.00;100048.31;5088943;28;19916;-77
2022/05/07 04:40:29;;;;;;;;;;;;;;;11.96;100.00;100050.28;5088789;28;19920;-76
2022/05/07 04:42:56;;;;;;;;;;;;;;;11.97;100.00;100052.75;5090417;28;19938;-77
2022/05/07 04:45:22;;;;;;;;;;;;;;;11.99;100.00;100049.97;5092389;28;20431;-77
2022/05/07 04:47:59;;;;;;;;;;;;;;;12.01;100.00;100051.53;5090183;28;19923;-77
2022/05/07 04:50:28;;;;;;;;;;;;;;;12.03;100.00;100051.38;5118545;27;20036;-76
2022/05/07 04:53:07;;;;;;;;;;;;;;;12.05;100.00;100054.72;5092304;28;19916;-77
2022/05/07 04:55:32;;;;;;;;;;;;;;;12.07;100.00;100052.78;5094022;28;19916;-77
2022/05/07 04:57:58;;;;;;;;;;;;;;;12.10;100.00;100055.13;5092907;28;20256;-76
2022/05/07 05:00:28;;;;;;;;;;;;;;;12.12;100.00;100050.53;5093732;28;19916;-76
2022/05/07 05:03:13;;;;;;;;;;;;;;;12.15;100.00;100051.06;5092470;28;19919;-77
2022/05/07 05:05:41;;;;;;;;;;;;;;;12.18;100.00;100050.81;5092728;28;19916;-77
2022/05/07 05:08:13;;;;;;;;;;;;;;;12.21;100.00;100054.97;5092139;28;20401;-78
2022/05/07 05:10:39;;;;;;;;;;;;;;;12.25;100.00;100057.19;5117837;27;19916;-77
2022/05/07 05:13:05;;;;;;;;;;;;;;;12.28;100.00;100058.72;5092187;28;19955;-77
2022/05/07 05:15:32;;;;;;;;;;;;;;;12.32;100.00;100058.31;5091961;28;19927;-76
2022/05/07 05:18:04;;;;;;;;;;;;;;;12.38;100.00;100056.06;5091316;28;19920;-77
2022/05/07 05:20:32;;;;;;;;;;;;;;;12.43;100.00;100059.94;5117638;27;19916;-76
2022/05/07 05:23:22;;;;;;;;;;;;;;;12.46;100.00;100054.38;5091965;28;19920;-77
2022/05/07 05:25:48;;;;;;;;;;;;;;;12.48;100.00;100062.19;5092147;28;19916;-77
2022/05/07 05:28:38;;;;;;;;;;;;;;;12.51;100.00;100062.72;5091944;28;20006;-77
2022/05/07 05:31:08;;;;;;;;;;;;;;;12.57;100.00;100072.75;5092020;28;19916;-77
2022/05/07 05:33:38;;;;;;;;;;;;;;;12.63;100.00;100066.88;5092172;28;19923;-78
2022/05/07 05:36:09;;;;;;;;;;;;;;;12.71;100.00;100068.81;5093302;28;20379;-77
2022/05/07 05:38:39;;;;;;;;;;;;;;;12.78;100.00;100069.09;5092355;28;19961;-77
2022/05/07 05:41:05;;;;;;;;;;;;;;;12.77;100.00;100078.00;5091939;28;20330;-77
2022/05/07 05:43:34;;;;;;;;;;;;;;;12.74;100.00;100073.81;5092664;28;19970;-79
2022/05/07 05:45:59;;;;;;;;;;;;;;;12.70;100.00;100077.72;5093578;28;19955;-77
2022/05/07 05:48:29;;;;;;;;;;;;;;;12.73;100.00;100085.38;5091285;28;19916;-78
2022/05/07 05:50:55;;;;;;;;;;;;;;;12.79;100.00;100076.84;5093236;28;19999;-77
2022/05/07 05:53:20;;;;;;;;;;;;;;;12.88;100.00;100077.81;5090871;28;20005;-77
2022/05/07 05:55:49;;;;;;;;;;;;;;;12.97;100.00;100080.44;5091627;28;19926;-77
2022/05/07 05:58:23;;;;;;;;;;;;;;;13.05;100.00;100077.06;5072061;28;20259;-78
2022/05/07 06:00:50;;;;;;;;;;;;;;;13.11;100.00;100071.19;5091460;28;19922;-77
2022/05/07 06:03:16;;;;;;;;;;;;;;;13.13;100.00;100079.84;5091328;28;19924;-77
2022/05/07 06:05:42;;;;;;;;;;;;;;;13.16;100.00;100078.72;5091458;28;19929;-76
2022/05/07 06:08:07;;;;;;;;;;;;;;;13.20;100.00;100080.91;5091532;28;19916;-76
2022/05/07 06:10:37;;;;;;;;;;;;;;;13.25;100.00;100083.97;5091476;28;20355;-77
2022/05/07 06:13:07;;;;;;;;;;;;;;;13.30;100.00;100078.22;5091364;28;20031;-77
2022/05/07 06:15:38;;;;;;;;;;;;;;;13.25;100.00;100078.69;5091664;28;19916;-77
2022/05/07 06:18:04;;;;;;;;;;;;;;;13.27;100.00;100081.16;5090722;28;19916;-77
2022/05/07 06:20:30;;;;;;;;;;;;;;;13.32;100.00;100074.44;5091562;28;19927;-75
2022/05/07 06:23:00;;;;;;;;;;;;;;;13.38;100.00;100067.72;5091568;28;20364;-77
2022/05/07 06:28:15;;;;;;;;;;;;;;;13.46;100.00;100076.59;5090864;28;19941;-77
2022/05/07 06:30:42;;;;;;;;;;;;;;;13.56;100.00;100075.69;5091506;28;19923;-76
2022/05/07 06:33:11;;;;;;;;;;;;;;;13.67;100.00;100083.44;5090825;28;20391;-76
2022/05/07 06:35:42;;;;;;;;;;;;;;;13.78;100.00;100085.91;5091193;28;19954;-77
2022/05/07 06:38:11;;;;;;;;;;;;;;;13.86;100.00;100084.16;5090462;28;19995;-77
2022/05/07 06:40:39;;;;;;;;;;;;;;;13.92;100.00;100078.25;5090175;28;19915;-79
2022/05/07 06:43:08;;;;;;;;;;;;;;;13.96;100.00;100078.75;5091147;28;19916;-78
2022/05/07 06:45:57;;;;;;;;;;;;;;;14.02;100.00;100083.47;5088120;28;19916;-78
2022/05/07 06:48:23;;;;;;;;;;;;;;;14.09;100.00;100081.03;5091276;28;19942;-75
2022/05/07 06:50:54;;;;;;;;;;;;;;;14.15;100.00;100081.25;5083472;28;19951;-78
2022/05/07 06:53:22;;;;;;;;;;;;;;;14.22;100.00;100084.16;5112910;27;19985;-77
2022/05/07 06:56:00;;;;;;;;;;;;;;;14.26;100.00;100086.34;5089112;28;20348;-77
2022/05/07 06:58:27;;;;;;;;;;;;;;;14.29;100.00;100078.06;5090605;28;19922;-77
2022/05/07 07:00:52;;;;;;;;;;;;;;;14.32;100.00;100083.06;5091656;28;20010;-76
2022/05/07 07:03:18;;;;;;;;;;;;;;;14.31;100.00;100085.91;5090209;28;20401;-78
2022/05/07 07:05:43;;;;;;;;;;;;;;;14.40;100.00;100081.50;5089611;28;19916;-78
2022/05/07 07:08:11;;;;;;;;;;;;;;;14.38;100.00;100083.47;5091434;28;20279;-79
2022/05/07 07:10:37;;;;;;;;;;;;;;;14.37;100.00;100076.47;5089722;28;19959;-78
2022/05/07 07:13:02;;;;;;;;;;;;;;;14.40;100.00;100085.00;5090666;28;20359;-77
2022/05/07 07:15:27;;;;;;;;;;;;;;;14.51;100.00;100091.88;5090227;28;19920;-77
2022/05/07 07:17:58;;;;;;;;;;;;;;;14.61;100.00;100081.97;4575386;28;10000740;-78
2022/05/07 07:20:24;;;;;;;;;;;;;;;14.61;100.00;100084.63;5087284;28;19919;-78
2022/05/07 07:22:49;;;;;;;;;;;;;;;14.72;100.00;100081.75;5088658;28;19927;-78
2022/05/07 07:25:14;;;;;;;;;;;;;;;14.84;100.00;100084.97;5088252;28;19924;-77
2022/05/07 07:27:40;;;;;;;;;;;;;;;14.93;100.00;100084.84;5088143;28;19924;-78
2022/05/07 07:30:05;;;;;;;;;;;;;;;15.01;100.00;100082.25;5087739;28;19923;-77
2022/05/07 07:32:31;;;;;;;;;;;;;;;14.98;100.00;100081.72;5087598;28;20016;-76
2022/05/07 07:34:57;;;;;;;;;;;;;;;15.01;100.00;100082.25;5087094;28;19916;-79
2022/05/07 07:37:22;;;;;;;;;;;;;;;15.14;100.00;100082.63;4382644;28;9999975;-76
2022/05/07 07:39:48;;;;;;;;;;;;;;;15.21;100.00;100082.81;5089038;28;19916;-76
2022/05/07 07:42:13;;;;;;;;;;;;;;;15.15;100.00;100080.78;5091205;28;19916;-76
2022/05/07 07:44:38;;;;;;;;;;;;;;;15.19;100.00;100086.66;5088443;28;19976;-77
2022/05/07 07:49:50;;;;;;;;;;;;;;;15.00;100.00;100090.38;5089278;28;20323;-77
2022/05/07 07:52:16;;;;;;;;;;;;;;;14.96;100.00;100084.50;5089969;28;20018;-75
2022/05/07 07:54:42;;;;;;;;;;;;;;;15.04;100.00;100079.25;5089944;28;19915;-76
2022/05/07 07:57:07;;;;;;;;;;;;;;;15.19;100.00;100078.66;5090381;28;20465;-78
2022/05/07 07:59:33;;;;;;;;;;;;;;;15.30;100.00;100091.69;5089772;28;20022;-77
2022/05/07 08:01:58;;;;;;;;;;;;;;;15.31;100.00;100093.34;5089374;28;19915;-77
2022/05/07 08:04:26;;;;;;;;;;;;;;;15.39;100.00;100088.03;5088742;28;19943;-77
2022/05/07 08:12:20;;;;;;;;;;;;;;;15.66;100.00;100087.84;5092297;28;19924;-76
2022/05/07 08:14:46;;;;;;;;;;;;;;;15.65;100.00;100088.00;5094572;28;19969;-77
2022/05/07 08:17:11;;;;;;;;;;;;;;;15.64;100.00;100083.66;5092861;28;19916;-76
2022/05/07 08:19:36;;;;;;;;;;;;;;;15.66;100.00;100087.00;5095210;28;19915;-77
2022/05/07 08:22:02;;;;;;;;;;;;;;;15.66;100.00;100082.53;5095907;28;19922;-76
2022/05/07 08:24:28;;;;;;;;;;;;;;;15.61;100.00;100087.47;5091861;28;19948;-76
2022/05/07 08:26:54;;;;;;;;;;;;;;;15.73;100.00;100082.69;5089601;28;19992;-77
2022/05/07 08:29:21;;;;;;;;;;;;;;;15.81;100.00;100096.00;5090031;28;19920;-77
2022/05/07 08:31:47;;;;;;;;;;;;;;;15.89;100.00;100088.06;5089626;28;19952;-78
2022/05/07 08:34:12;;;;;;;;;;;;;;;15.92;100.00;100085.88;5089530;28;19935;-76
2022/05/07 08:36:37;;;;;;;;;;;;;;;16.04;100.00;100074.91;5089479;28;20368;-77
2022/05/07 08:39:03;;;;;;;;;;;;;;;16.20;100.00;100085.59;5114813;28;19916;-78
2022/05/07 08:41:28;;;;;;;;;;;;;;;16.31;100.00;100088.75;5090128;28;19999;-78
2022/05/07 08:43:53;;;;;;;;;;;;;;;16.37;100.00;100092.59;5089374;28;19916;-77
2022/05/07 08:46:19;;;;;;;;;;;;;;;16.30;100.00;100091.59;5090057;28;20011;-78
2022/05/07 08:48:51;;;;;;;;;;;;;;;16.01;100.00;100086.75;5089588;28;19919;-78
2022/05/07 08:51:18;;;;;;;;;;;;;;;15.82;100.00;100087.88;5090062;28;19931;-77
2022/05/07 08:53:44;;;;;;;;;;;;;;;16.00;100.00;100094.88;5089253;28;19916;-79
2022/05/07 08:56:13;;;;;;;;;;;;;;;16.11;100.00;100091.91;5088898;28;20368;-79
2022/05/07 08:58:45;;;;;;;;;;;;;;;16.30;100.00;100094.25;5089085;28;19966;-79
2022/05/07 09:01:10;;;;;;;;;;;;;;;16.50;100.00;100087.56;5090253;28;19926;-76
2022/05/07 09:03:43;;;;;;;;;;;;;;;16.64;100.00;100086.94;5089139;28;20323;-79
2022/05/07 09:06:25;;;;;;;;;;;;;;;16.82;100.00;100083.22;5089637;28;19962;-79
2022/05/07 09:08:52;;;;;;;;;;;;;;;16.81;100.00;100085.06;5093503;28;19919;-81
2022/05/07 09:11:18;;;;;;;;;;;;;;;16.87;100.00;100081.72;5093947;28;20332;-78
2022/05/07 09:13:43;;;;;;;;;;;;;;;17.02;100.00;100079.19;5097896;28;19965;-79
2022/05/07 09:16:09;;;;;;;;;;;;;;;17.13;100.00;100078.81;5119842;28;19915;-77
2022/05/07 09:18:34;;;;;;;;;;;;;;;17.13;100.00;100068.16;5089290;28;19923;-77
2022/05/07 09:21:16;;;;;;;;;;;;;;;17.16;100.00;100070.47;5093962;28;19923;-78
2022/05/07 09:23:45;;;;;;;;;;;;;;;17.38;100.00;100064.34;5097231;28;19919;-78
2022/05/07 09:26:25;;;;;;;;;;;;;;;17.64;100.00;100065.94;5095679;28;19977;-79
2022/05/07 09:28:50;;;;;;;;;;;;;;;17.76;100.00;100067.19;5092365;28;20484;-78
2022/05/07 09:31:26;;;;;;;;;;;;;;;17.67;100.00;100061.06;5095816;28;19923;-78
2022/05/07 09:33:51;;;;;;;;;;;;;;;17.53;100.00;100065.31;5095294;28;20387;-77
2022/05/07 09:36:17;;;;;;;;;;;;;;;17.32;100.00;100070.38;5090260;28;19946;-77
2022/05/07 09:38:47;;;;;;;;;;;;;;;17.42;100.00;100065.69;5090842;28;19994;-79
2022/05/07 09:41:19;;;;;;;;;;;;;;;17.68;100.00;100059.22;5093563;28;20295;-78
2022/05/07 09:43:46;;;;;;;;;;;;;;;17.80;100.00;100063.16;5092645;28;20313;-77
2022/05/07 09:46:11;;;;;;;;;;;;;;;17.63;100.00;100059.75;5092963;28;19916;-76
2022/05/07 09:48:38;;;;;;;;;;;;;;;17.43;100.00;100059.34;5092962;28;20300;-77
2022/05/07 09:51:04;;;;;;;;;;;;;;;17.33;100.00;100056.06;5091585;28;19947;-77
2022/05/07 09:58:59;;;;;;;;;;;;;;;17.96;100.00;100049.72;5089993;28;20283;-77
2022/05/07 10:01:28;;;;;;;;;;;;;;;18.13;100.00;100051.25;5092761;28;19920;-77
2022/05/07 10:04:12;;;;;;;;;;;;;;;18.37;100.00;100043.03;5088437;28;20030;-78
2022/05/07 10:06:56;;;;;;;;;;;;;;;18.72;100.00;100048.75;5090476;28;19919;-77
2022/05/07 10:09:40;;;;;;;;;;;;;;;18.98;100.00;100043.75;5088075;28;19995;-77
2022/05/07 10:12:07;;;;;;;;;;;;;;;19.20;100.00;100037.44;5090032;28;19942;-77
2022/05/07 10:14:32;;;;;;;;;;;;;;;19.48;100.00;100042.16;5092527;28;19923;-78
2022/05/07 10:16:59;;;;;;;;;;;;;;;19.75;97.79;100037.91;5092480;28;19920;-76
2022/05/07 10:19:34;;;;;;;;;;;;;;;19.82;96.53;100042.31;5091792;28;19916;-77
2022/05/07 10:22:00;;;;;;;;;;;;;;;19.97;95.84;100032.38;5088772;28;19916;-78
2022/05/07 10:24:25;;;;;;;;;;;;;;;19.90;95.41;100031.50;5091613;28;19916;-77
2022/05/07 10:26:50;;;;;;;;;;;;;;;20.15;94.01;100033.75;5092001;28;19916;-78
2022/05/07 10:29:20;;;;;;;;;;;;;;;19.82;94.82;100030.78;5091745;28;19931;-78
2022/05/07 10:31:46;;;;;;;;;;;;;;;19.80;94.40;100025.63;5091987;28;19942;-78
2022/05/07 10:34:22;;;;;;;;;;;;;;;19.96;94.70;100020.03;5091419;28;19916;-78
2022/05/07 10:36:58;;;;;;;;;;;;;;;20.22;94.16;100023.94;5091751;28;20368;-78
2022/05/07 10:39:23;;;;;;;;;;;;;;;20.44;94.38;100018.38;5087543;28;19915;-78
2022/05/07 10:41:49;;;;;;;;;;;;;;;20.55;93.18;100019.72;5091836;28;19962;-78
2022/05/07 10:44:28;;;;;;;;;;;;;;;20.49;91.47;100015.13;5091446;28;19916;-78
2022/05/07 10:46:53;;;;;;;;;;;;;;;20.43;91.07;100018.59;5092120;28;20015;-78
2022/05/07 10:49:19;;;;;;;;;;;;;;;20.32;92.35;100011.09;5090955;28;20482;-78
2022/05/07 10:51:52;;;;;;;;;;;;;;;20.22;92.62;100007.84;5091342;28;20053;-77
2022/05/07 10:54:19;;;;;;;;;;;;;;;20.31;93.54;100004.03;5090517;28;19937;-77
2022/05/07 10:56:49;;;;;;;;;;;;;;;20.64;93.54;100005.09;5091049;28;19923;-78
2022/05/07 10:59:15;;;;;;;;;;;;;;;20.94;92.18;99999.50;5090958;28;20360;-77
2022/05/07 11:01:40;;;;;;;;;;;;;;;21.04;92.04;99997.28;5091524;28;19993;-77
2022/05/07 11:04:06;;;;;;;;;;;;;;;21.03;91.85;99996.44;5090997;28;19916;-78
2022/05/07 11:06:33;;;;;;;;;;;;;;;21.11;89.17;99992.75;5091434;28;19915;-77
2022/05/07 11:08:58;;;;;;;;;;;;;;;21.22;88.74;99989.53;5090782;28;19947;-77
2022/05/07 11:11:24;;;;;;;;;;;;;;;21.13;88.65;99986.19;5090521;28;20005;-77
2022/05/07 11:13:54;;;;;;;;;;;;;;;21.16;86.84;99985.81;5091076;28;19985;-76
2022/05/07 11:16:20;;;;;;;;;;;;;;;21.32;85.67;99987.31;5089782;28;19916;-77
2022/05/07 11:18:51;;;;;;;;;;;;;;;21.48;86.75;99989.63;5091268;28;19923;-77
2022/05/07 11:21:23;;;;;;;;;;;;;;;21.34;85.38;99985.25;5090729;28;19950;-77
2022/05/07 11:23:54;;;;;;;;;;;;;;;21.62;83.35;99985.09;5091178;28;19959;-77
2022/05/07 11:26:20;;;;;;;;;;;;;;;21.49;82.42;99985.94;5090230;28;19916;-77
2022/05/07 11:28:46;;;;;;;;;;;;;;;21.47;83.94;99976.41;5090473;28;19985;-78
2022/05/07 11:31:15;;;;;;;;;;;;;;;21.24;85.70;99971.38;5090032;28;19923;-77
2022/05/07 11:33:40;;;;;;;;;;;;;;;21.25;86.06;99967.69;5090878;28;20023;-78
2022/05/07 11:36:08;;;;;;;;;;;;;;;21.43;85.98;99976.00;5090547;28;20398;-77
2022/05/07 11:38:34;;;;;;;;;;;;;;;21.50;86.28;99966.06;5089544;28;19916;-77
2022/05/07 11:41:14;;;;;;;;;;;;;;;21.41;85.78;99961.94;5090153;28;19998;-76
2022/05/07 11:46:26;;;;;;;;;;;;;;;21.89;85.00;99957.25;5086603;28;19965;-77
2022/05/07 11:48:52;;;;;;;;;;;;;;;22.06;83.45;99963.06;5090567;28;19920;-77
2022/05/07 11:51:24;;;;;;;;;;;;;;;22.14;81.38;99957.50;5090051;28;20283;-77
2022/05/07 11:53:50;;;;;;;;;;;;;;;22.19;80.12;99957.69;5090518;28;19962;-77
2022/05/07 11:56:15;;;;;;;;;;;;;;;22.23;80.29;99953.56;5089540;28;20364;-76
2022/05/07 11:58:46;;;;;;;;;;;;;;;22.20;79.40;99951.28;5090161;28;20355;-77
2022/05/07 12:01:19;;;;;;;;;;;;;;;22.33;77.46;99948.56;5089732;28;20311;-79
2022/05/07 12:03:44;;;;;;;;;;;;;;;22.94;77.06;99947.41;5090649;28;19969;-76
2022/05/07 12:06:12;;;;;;;;;;;;;;;23.46;74.40;99952.56;5090053;28;20395;-77
2022/05/07 12:08:37;;;;;;;;;;;;;;;23.98;70.65;99943.25;5090279;28;19916;-76
2022/05/07 12:11:04;;;;;;;;;;;;;;;24.43;69.80;99943.09;5089813;28;20287;-77
2022/05/07 12:13:29;;;;;;;;;;;;;;;23.74;72.08;99944.06;5089666;28;20429;-76
2022/05/07 12:18:42;;;;;;;;;;;;;;;24.02;71.42;99936.41;5088809;28;20295;-76
2022/05/07 12:21:08;;;;;;;;;;;;;;;24.84;69.85;99932.47;5089767;28;20417;-77
2022/05/07 12:31:46;;;;;;;;;;;;;;;30.55;47.16;99917.53;5089805;28;19922;-79
2022/05/07 12:34:11;;;;;;;;;;;;;;;31.46;42.87;99907.75;5089703;28;20002;-78
2022/05/07 12:36:37;;;;;;;;;;;;;;;32.38;41.79;99905.84;5089964;28;19989;-78
2022/05/07 12:39:02;;;;;;;;;;;;;;;33.31;38.21;99903.28;5089946;28;20298;-78
2022/05/07 12:41:28;;;;;;;;;;;;;;;34.30;35.25;99896.44;5089339;28;20368;-77
2022/05/07 12:43:54;;;;;;;;;;;;;;;33.63;35.52;99892.66;5089227;28;19923;-76
2022/05/07 12:46:20;;;;;;;;;;;;;;;31.75;39.24;99899.91;5088779;28;19916;-77
2022/05/07 12:48:45;;;;;;;;;;;;;;;30.68;41.41;99889.81;5089542;28;19916;-78
2022/05/07 12:51:11;;;;;;;;;;;;;;;29.15;43.80;99881.53;5089429;28;19916;-77
2022/05/07 12:53:36;;;;;;;;;;;;;;;26.88;49.51;99887.78;5089637;28;19916;-77
2022/05/07 12:56:02;;;;;;;;;;;;;;;26.28;52.02;99884.56;5089806;28;20288;-76
2022/05/07 12:58:28;;;;;;;;;;;;;;;27.87;48.05;99885.50;5088950;28;19959;-77
2022/05/07 13:00:53;;;;;;;;;;;;;;;29.43;43.49;99878.59;5089062;28;19968;-77
2022/05/07 13:03:19;;;;;;;;;;;;;;;30.17;40.95;99878.63;5089266;28;20052;-77